Time;durP1;ratioP1;P1;durP2;ratioP2;P2;SDS_P1;SDS_P2;PMS_P1;PMS_P2;Temp;Humidity;BMP_temperature;BMP_pressure;BME280_temperature;BME280_humidity;BME280_pressure;Samples;Min_cycle;Max_cycle;Signal;HPM_P1;HPM_P2
2022/04/01 00:00:10;0.00;0.00;0.62;0.00;0.00;0.62;1.30;0.70;;;23.40;19.10;;;;;;2241862;61;20392;-52
2022/04/01 00:02:59;0.00;0.00;0.62;0.00;0.00;0.62;1.50;0.90;;;23.40;19.20;;;;;;2243239;61;20863;-49
2022/04/01 00:05:44;0.00;0.00;0.62;0.00;0.00;0.62;1.70;0.90;;;23.40;19.20;;;;;;2243388;61;20459;-50
2022/04/01 00:08:31;0.00;0.00;0.62;0.00;0.00;0.62;1.40;0.87;;;23.40;19.20;;;;;;2241402;61;20522;-50
2022/04/01 00:11:16;0.00;0.00;0.62;0.00;0.00;0.62;1.40;0.73;;;23.40;19.70;;;;;;2242035;61;20959;-49
2022/04/01 00:14:01;0.00;0.00;0.62;0.00;0.00;0.62;1.20;0.70;;;23.40;19.10;;;;;;2614926;46;20364;-56
2022/04/01 00:16:46;0.00;0.00;0.62;0.00;0.00;0.62;1.37;0.80;;;23.40;19.10;;;;;;2245417;61;20483;-50
2022/04/01 00:19:30;0.00;0.00;0.62;0.00;0.00;0.62;1.53;1.00;;;23.40;19.10;;;;;;2248084;61;20922;-53
2022/04/01 00:22:15;0.00;0.00;0.62;0.00;0.00;0.62;1.43;0.80;;;23.40;19.00;;;;;;2246289;61;20376;-50
2022/04/01 00:25:01;0.00;0.00;0.62;0.00;0.00;0.62;1.30;0.70;;;23.40;18.90;;;;;;2248422;61;20395;-51
2022/04/01 00:27:45;0.00;0.00;0.62;0.00;0.00;0.62;1.30;0.70;;;23.40;18.80;;;;;;2247988;61;20845;-50
2022/04/01 00:30:33;0.00;0.00;0.62;0.00;0.00;0.62;1.60;1.00;;;23.40;18.80;;;;;;2245603;61;20403;-53
2022/04/01 00:33:17;0.00;0.00;0.62;0.00;0.00;0.62;1.33;0.93;;;23.30;18.80;;;;;;2248288;61;20387;-51
2022/04/01 00:36:03;0.00;0.00;0.62;0.00;0.00;0.62;2.00;1.00;;;23.30;18.70;;;;;;2248110;61;20466;-51
2022/04/01 00:38:47;0.00;0.00;0.62;0.00;0.00;0.62;1.50;0.90;;;23.30;18.70;;;;;;2247079;61;21108;-51
2022/04/01 00:41:33;0.00;0.00;0.62;0.00;0.00;0.62;1.83;1.00;;;23.30;18.70;;;;;;2248096;61;20410;-51
2022/04/01 00:44:20;0.00;0.00;0.62;0.00;0.00;0.62;1.60;1.23;;;23.30;18.60;;;;;;2247085;61;20502;-58
2022/04/01 00:47:08;0.00;0.00;0.62;0.00;0.00;0.62;1.50;0.93;;;23.20;18.60;;;;;;2248012;61;20363;-55
2022/04/01 00:49:55;0.00;0.00;0.62;0.00;0.00;0.62;1.63;0.90;;;23.20;18.50;;;;;;2247199;61;20935;-52
2022/04/01 00:52:42;0.00;0.00;0.62;0.00;0.00;0.62;2.20;1.43;;;23.20;18.50;;;;;;2243997;61;20416;-56
2022/04/01 00:55:28;0.00;0.00;0.62;0.00;0.00;0.62;2.20;1.20;;;23.20;18.50;;;;;;2243931;61;20372;-54
2022/04/01 00:58:14;0.00;0.00;0.62;0.00;0.00;0.62;2.30;1.00;;;23.10;18.40;;;;;;2244045;61;20473;-55
2022/04/01 01:00:59;0.00;0.00;0.62;0.00;0.00;0.62;2.90;1.20;;;23.10;18.50;;;;;;2243027;61;20824;-56
2022/04/01 01:03:45;0.00;0.00;0.62;0.00;0.00;0.62;1.97;1.07;;;23.10;18.40;;;;;;2244342;61;20412;-57
2022/04/01 01:06:31;0.00;0.00;0.62;0.00;0.00;0.62;2.83;1.20;;;23.00;18.30;;;;;;2243173;61;20368;-57
2022/04/01 01:09:18;0.00;0.00;0.62;0.00;0.00;0.62;1.63;1.23;;;23.00;18.40;;;;;;2503546;53;20505;-52
2022/04/01 01:12:06;0.00;0.00;0.62;0.00;0.00;0.62;3.20;1.33;;;23.00;18.40;;;;;;2243664;61;20380;-53
2022/04/01 01:14:53;0.00;0.00;0.62;0.00;0.00;0.62;1.80;1.17;;;22.90;18.30;;;;;;2239338;61;20416;-51
2022/04/01 01:17:39;0.00;0.00;0.62;0.00;0.00;0.62;1.70;1.10;;;22.90;18.30;;;;;;2244066;61;20428;-53
2022/04/01 01:20:24;0.00;0.00;0.62;0.00;0.00;0.62;1.70;1.10;;;22.90;18.30;;;;;;2240862;61;20424;-54
2022/04/01 01:23:12;0.00;0.00;0.62;0.00;0.00;0.62;1.67;1.10;;;22.90;18.40;;;;;;2243142;61;20415;-52
2022/04/01 01:25:58;0.00;0.00;0.62;0.00;0.00;0.62;2.10;1.40;;;22.90;18.30;;;;;;2243963;61;20404;-51
2022/04/01 01:28:43;0.00;0.00;0.62;0.00;0.00;0.62;2.70;1.30;;;22.80;18.20;;;;;;2239433;61;20948;-55
2022/04/01 01:31:28;0.00;0.00;0.62;0.00;0.00;0.62;2.17;1.33;;;22.80;18.30;;;;;;2244195;61;20416;-51
2022/04/01 01:34:12;0.00;0.00;0.62;0.00;0.00;0.62;1.60;1.20;;;22.80;18.30;;;;;;2240798;61;20368;-51
2022/04/01 01:36:57;0.00;0.00;0.62;0.00;0.00;0.62;1.73;1.10;;;22.70;18.20;;;;;;2242398;61;20440;-52
2022/04/01 01:39:41;0.00;0.00;0.62;0.00;0.00;0.62;1.93;1.20;;;22.70;18.20;;;;;;2243952;61;20392;-55
2022/04/01 01:42:28;0.00;0.00;0.62;0.00;0.00;0.62;1.30;0.90;;;22.70;18.20;;;;;;2243631;61;20400;-51
2022/04/01 01:45:13;0.00;0.00;0.62;0.00;0.00;0.62;1.80;1.30;;;22.70;18.30;;;;;;2242906;61;20984;-54
2022/04/01 01:47:58;0.00;0.00;0.62;0.00;0.00;0.62;1.90;1.43;;;22.60;18.20;;;;;;2240735;61;20448;-56
2022/04/01 01:56:50;0.00;0.00;0.62;0.00;0.00;0.62;1.90;1.10;;;22.60;18.30;;;;;;2240899;61;20388;-54
2022/04/01 01:59:36;0.00;0.00;0.62;0.00;0.00;0.62;1.50;1.00;;;22.50;18.20;;;;;;2238921;61;20384;-49
2022/04/01 02:02:21;0.00;0.00;0.62;0.00;0.00;0.62;1.73;1.20;;;22.50;18.30;;;;;;2240011;61;20404;-54
2022/04/01 02:05:06;0.00;0.00;0.62;0.00;0.00;0.62;1.57;1.00;;;22.40;18.30;;;;;;2243759;61;20400;-54
2022/04/01 02:07:53;0.00;0.00;0.62;0.00;0.00;0.62;1.70;1.20;;;22.40;18.10;;;;;;2239925;61;20431;-52
2022/04/01 02:10:37;0.00;0.00;0.62;0.00;0.00;0.62;1.63;1.20;;;22.40;18.00;;;;;;2240667;61;20857;-54
2022/04/01 02:13:22;0.00;0.00;0.62;0.00;0.00;0.62;1.70;1.50;;;22.40;17.80;;;;;;2242799;61;20364;-51
2022/04/01 02:16:08;0.00;0.00;0.62;0.00;0.00;0.62;2.30;1.10;;;22.30;17.80;;;;;;2243893;61;20368;-50
2022/04/01 02:18:52;0.00;0.00;0.62;0.00;0.00;0.62;1.90;1.10;;;22.30;17.90;;;;;;2243770;61;20388;-53
2022/04/01 02:21:37;0.00;0.00;0.62;0.00;0.00;0.62;1.77;1.13;;;22.30;17.90;;;;;;2239677;61;20365;-53
2022/04/01 02:24:23;0.00;0.00;0.62;0.00;0.00;0.62;1.60;1.10;;;22.20;17.90;;;;;;2240807;61;20428;-51
2022/04/01 02:27:09;0.00;0.00;0.62;0.00;0.00;0.62;1.90;0.90;;;22.20;18.00;;;;;;2240941;61;20372;-55
2022/04/01 02:29:54;0.00;0.00;0.62;0.00;0.00;0.62;2.73;1.50;;;22.20;18.00;;;;;;2239652;61;20381;-53
2022/04/01 02:33:00;0.00;0.00;0.62;0.00;0.00;0.62;2.30;1.47;;;22.20;18.10;;;;;;2244039;61;20389;-49
2022/04/01 02:35:48;0.00;0.00;0.62;0.00;0.00;0.62;2.90;1.40;;;22.10;18.00;;;;;;2239829;61;20904;-53
2022/04/01 02:38:33;0.00;0.00;0.62;0.00;0.00;0.62;2.40;1.70;;;22.10;18.10;;;;;;2240465;61;20412;-53
2022/04/01 02:41:18;0.00;0.00;0.62;0.00;0.00;0.62;1.90;1.40;;;22.10;18.10;;;;;;2240823;61;20411;-51
2022/04/01 02:44:09;0.00;0.00;0.62;0.00;0.00;0.62;1.90;1.17;;;22.00;18.10;;;;;;2239766;61;20388;-50
2022/04/01 02:46:56;0.00;0.00;0.62;0.00;0.00;0.62;1.77;1.10;;;22.00;18.10;;;;;;2240609;61;20501;-53
2022/04/01 02:49:42;0.00;0.00;0.62;0.00;0.00;0.62;2.23;1.50;;;22.00;18.10;;;;;;2237767;61;21012;-51
2022/04/01 02:52:27;0.00;0.00;0.62;0.00;0.00;0.62;2.50;1.40;;;22.00;18.20;;;;;;2240197;61;20365;-52
2022/04/01 02:55:12;0.00;0.00;0.62;0.00;0.00;0.62;2.33;1.40;;;22.00;18.20;;;;;;2240737;61;20365;-56
2022/04/01 02:57:59;0.00;0.00;0.62;0.00;0.00;0.62;2.33;1.47;;;21.90;18.10;;;;;;2239670;61;20716;-54
2022/04/01 03:00:43;0.00;0.00;0.62;0.00;0.00;0.62;2.10;1.37;;;21.90;18.20;;;;;;2240499;61;20465;-56
2022/04/01 03:03:29;0.00;0.00;0.62;0.00;0.00;0.62;2.10;1.30;;;21.90;18.20;;;;;;2240952;61;20490;-55
2022/04/01 03:06:18;0.00;0.00;0.62;0.00;0.00;0.62;1.90;1.20;;;21.80;18.10;;;;;;2239823;61;20419;-53
2022/04/01 03:09:03;0.00;0.00;0.62;0.00;0.00;0.62;1.70;1.00;;;21.80;18.10;;;;;;2240473;61;20489;-55
2022/04/01 03:11:48;0.00;0.00;0.62;0.00;0.00;0.62;2.13;1.53;;;21.80;18.20;;;;;;2240631;61;20432;-52
2022/04/01 03:14:53;0.00;0.00;0.62;0.00;0.00;0.62;1.90;1.30;;;21.80;18.20;;;;;;2243697;61;20389;-51
2022/04/01 03:17:43;0.00;0.00;0.62;0.00;0.00;0.62;1.80;1.30;;;21.70;18.20;;;;;;2243971;61;20416;-53
2022/04/01 03:20:37;0.00;0.00;0.62;0.00;0.00;0.62;2.00;1.10;;;21.70;18.30;;;;;;2239262;61;20361;-54
2022/04/01 03:23:24;0.00;0.00;0.62;0.00;0.00;0.62;2.10;1.03;;;21.70;18.30;;;;;;2240599;61;20901;-55
2022/04/01 03:26:09;0.00;0.00;0.62;0.00;0.00;0.62;1.60;1.33;;;21.70;18.30;;;;;;2240827;61;20400;-56
2022/04/01 03:29:06;0.00;0.00;0.62;0.00;0.00;0.62;2.60;1.63;;;21.70;18.30;;;;;;2239237;61;20403;-56
2022/04/01 03:31:51;0.00;0.00;0.62;0.00;0.00;0.62;2.00;1.30;;;21.60;18.30;;;;;;2240751;61;20365;-53
2022/04/01 03:34:38;0.00;0.00;0.62;0.00;0.00;0.62;2.23;1.60;;;21.60;18.30;;;;;;2239608;61;20904;-57
2022/04/01 03:37:23;0.00;0.00;0.62;0.00;0.00;0.62;2.00;1.30;;;21.60;18.30;;;;;;2240667;61;20451;-51
2022/04/01 03:40:14;0.00;0.00;0.62;0.00;0.00;0.62;1.80;1.30;;;21.50;18.30;;;;;;2243630;61;20381;-55
2022/04/01 03:42:59;0.00;0.00;0.62;0.00;0.00;0.62;1.83;1.23;;;21.50;18.30;;;;;;2239488;61;20377;-55
2022/04/01 03:45:46;0.00;0.00;0.62;0.00;0.00;0.62;1.60;1.23;;;21.50;18.30;;;;;;2240779;61;20813;-54
2022/04/01 03:48:44;0.00;0.00;0.62;0.00;0.00;0.62;1.90;1.33;;;21.50;18.30;;;;;;2240700;61;20420;-55
2022/04/01 03:51:31;0.00;0.00;0.62;0.00;0.00;0.62;1.80;1.20;;;21.50;18.40;;;;;;2240561;61;20404;-56
2022/04/01 03:54:17;0.00;0.00;0.62;0.00;0.00;0.62;2.43;1.40;;;21.40;18.30;;;;;;2241459;61;20423;-53
2022/04/01 03:57:37;0.00;0.00;0.62;0.00;0.00;0.62;2.63;1.30;;;21.40;18.30;;;;;;2241725;61;20446;-54
2022/04/01 04:00:45;0.00;0.00;0.62;0.00;0.00;0.62;1.60;1.20;;;21.40;18.40;;;;;;2241030;61;20439;-54
2022/04/01 04:03:31;0.00;0.00;0.62;0.00;0.00;0.62;2.03;1.57;;;21.30;18.30;;;;;;2241332;61;20412;-56
2022/04/01 04:06:17;0.00;0.00;0.62;0.00;0.00;0.62;2.30;1.70;;;21.30;18.40;;;;;;2240730;61;20368;-55
2022/04/01 04:09:03;0.00;0.00;0.62;0.00;0.00;0.62;1.80;1.30;;;21.30;18.40;;;;;;2240948;61;20396;-52
2022/04/01 04:11:49;0.00;0.00;0.62;0.00;0.00;0.62;1.93;1.47;;;21.30;18.40;;;;;;2240111;61;20916;-51
2022/04/01 04:14:40;0.00;0.00;0.62;0.00;0.00;0.62;2.70;1.30;;;21.30;18.40;;;;;;2241198;61;20416;-50
2022/04/01 04:17:42;0.00;0.00;0.62;0.00;0.00;0.62;2.60;1.57;;;21.20;18.40;;;;;;2241262;61;20900;-51
2022/04/01 04:20:34;0.00;0.00;0.62;0.00;0.00;0.62;1.40;1.00;;;21.20;18.40;;;;;;2240085;61;20416;-51
2022/04/01 04:23:24;0.00;0.00;0.62;0.00;0.00;0.62;2.20;1.63;;;21.20;18.40;;;;;;2241245;61;20392;-51
2022/04/01 04:26:13;0.00;0.00;0.62;0.00;0.00;0.62;2.77;1.50;;;21.20;18.40;;;;;;2240942;61;20838;-51
2022/04/01 04:29:10;0.00;0.00;0.62;0.00;0.00;0.62;1.80;1.10;;;21.20;18.40;;;;;;2244652;56;20461;-56
2022/04/01 04:32:04;0.00;0.00;0.62;0.00;0.00;0.62;2.23;1.40;;;21.10;18.40;;;;;;2249853;61;20413;-53
2022/04/01 04:34:51;0.00;0.00;0.62;0.00;0.00;0.62;1.70;1.20;;;21.10;18.40;;;;;;2248732;61;20406;-57
2022/04/01 04:37:43;0.00;0.00;0.62;0.00;0.00;0.62;1.80;1.23;;;21.10;18.40;;;;;;2250008;61;20406;-58
2022/04/01 04:40:30;0.00;0.00;0.62;0.00;0.00;0.62;4.03;1.27;;;21.10;18.50;;;;;;2248552;61;20383;-58
2022/04/01 04:43:33;0.00;0.00;0.62;0.00;0.00;0.62;2.10;1.33;;;21.00;18.40;;;;;;2245444;61;20447;-58
2022/04/01 04:46:19;0.00;0.00;0.62;0.00;0.00;0.62;2.30;1.40;;;21.10;18.50;;;;;;2245915;61;20447;-58
2022/04/01 04:49:05;0.00;0.00;0.62;0.00;0.00;0.62;1.70;1.20;;;21.00;18.50;;;;;;2244652;61;20790;-55
2022/04/01 04:51:52;0.00;0.00;0.62;0.00;0.00;0.62;4.20;1.17;;;21.00;18.50;;;;;;2245920;61;20360;-55
2022/04/01 04:54:41;0.00;0.00;0.62;0.00;0.00;0.62;2.53;1.70;;;21.00;18.50;;;;;;2245882;61;20423;-55
2022/04/01 04:57:47;0.00;0.00;0.62;0.00;0.00;0.62;2.77;1.27;;;21.00;18.50;;;;;;2247909;61;20367;-62
2022/04/01 05:00:32;0.00;0.00;0.62;0.00;0.00;0.62;2.63;1.87;;;21.00;18.50;;;;;;2245589;61;20434;-58
2022/04/01 05:03:41;0.00;0.00;0.62;0.00;0.00;0.62;1.87;1.20;;;20.90;18.40;;;;;;2245409;61;20414;-60
2022/04/01 05:06:16;0.00;0.00;0.62;0.00;0.00;0.62;2.23;1.40;;;20.90;18.50;;;;;;2245211;61;20392;-59
2022/04/01 05:09:31;0.00;0.00;0.62;0.00;0.00;0.62;2.13;1.30;;;20.90;18.50;;;;;;2248735;61;20446;-54
2022/04/01 05:12:34;0.00;0.00;0.62;0.00;0.00;0.62;2.23;1.20;;;20.90;18.50;;;;;;2245152;61;20398;-59
2022/04/01 05:15:43;0.00;0.00;0.62;0.00;0.00;0.62;2.13;1.40;;;20.80;18.50;;;;;;2249007;61;20974;-62
2022/04/01 05:18:38;0.00;0.00;0.62;0.00;0.00;0.62;2.90;1.70;;;20.90;18.50;;;;;;2244639;61;20387;-58
2022/04/01 05:21:26;0.00;0.00;0.62;0.00;0.00;0.62;2.00;1.63;;;20.80;18.40;;;;;;2243059;61;20770;-59
2022/04/01 05:24:15;0.00;0.00;0.62;0.00;0.00;0.62;2.20;1.30;;;20.80;18.40;;;;;;2249007;61;20895;-60
2022/04/01 05:27:06;0.00;0.00;0.62;0.00;0.00;0.62;2.87;1.90;;;20.80;18.50;;;;;;2249492;61;20407;-58
2022/04/01 05:30:20;0.00;0.00;0.62;0.00;0.00;0.62;2.63;1.50;;;20.80;18.50;;;;;;2249907;61;20496;-58
2022/04/01 05:33:15;0.00;0.00;0.62;0.00;0.00;0.62;3.73;1.43;;;20.70;18.50;;;;;;2504515;53;20441;-59
2022/04/01 05:36:00;0.00;0.00;0.62;0.00;0.00;0.62;1.67;1.23;;;20.70;18.50;;;;;;2243231;61;20368;-60
2022/04/01 05:38:49;0.00;0.00;0.62;0.00;0.00;0.62;2.73;1.53;;;20.70;18.50;;;;;;2245191;61;20377;-62
2022/04/01 05:41:34;0.00;0.00;0.62;0.00;0.00;0.62;2.53;1.87;;;20.70;18.50;;;;;;2239321;61;20373;-61
2022/04/01 05:44:20;0.00;0.00;0.62;0.00;0.00;0.62;2.50;1.33;;;20.70;18.50;;;;;;2244919;61;20432;-62
2022/04/01 05:47:07;0.00;0.00;0.62;0.00;0.00;0.62;2.67;1.37;;;20.70;18.60;;;;;;2241703;61;20372;-62
2022/04/01 05:49:57;0.00;0.00;0.62;0.00;0.00;0.62;1.93;1.33;;;20.70;18.60;;;;;;2240528;61;20469;-57
2022/04/01 05:52:42;0.00;0.00;0.62;0.00;0.00;0.62;1.50;1.40;;;20.60;18.60;;;;;;2245147;61;20496;-58
2022/04/01 05:55:30;0.00;0.00;0.62;0.00;0.00;0.62;2.20;1.57;;;20.60;18.50;;;;;;2240777;61;20910;-57
2022/04/01 05:58:15;0.00;0.00;0.62;0.00;0.00;0.62;2.30;1.30;;;20.60;18.60;;;;;;2244114;61;20529;-64
2022/04/01 06:01:12;0.00;0.00;0.62;0.00;0.00;0.62;1.77;1.13;;;20.60;18.60;;;;;;2246884;61;20406;-60
2022/04/01 06:04:54;0.00;0.00;0.62;0.00;0.00;0.62;2.00;1.50;;;20.60;18.70;;;;;;2248330;61;20367;-62
2022/04/01 06:07:49;0.00;0.00;0.62;0.00;0.00;0.62;2.50;1.40;;;20.60;18.70;;;;;;2250315;61;20421;-64
2022/04/01 06:10:52;0.00;0.00;0.62;0.00;0.00;0.62;2.43;1.60;;;20.50;18.70;;;;;;2249542;61;20435;-60
2022/04/01 06:14:17;0.00;0.00;0.62;0.00;0.00;0.62;2.37;1.60;;;20.50;18.80;;;;;;2241938;61;20380;-60
2022/04/01 06:17:38;0.00;0.00;0.62;0.00;0.00;0.62;1.93;1.23;;;20.50;18.80;;;;;;2244107;61;20424;-61
2022/04/01 06:20:26;0.00;0.00;0.62;0.00;0.00;0.62;2.73;1.70;;;20.50;18.90;;;;;;2243115;61;20503;-60
2022/04/01 06:23:23;0.00;0.00;0.62;0.00;0.00;0.62;4.47;1.80;;;20.50;18.90;;;;;;2242592;61;20423;-60
2022/04/01 06:26:13;0.00;0.00;0.62;0.00;0.00;0.62;2.03;1.30;;;20.50;18.90;;;;;;2247394;61;20371;-61
2022/04/01 06:29:10;0.00;0.00;0.62;0.00;0.00;0.62;2.10;1.40;;;20.50;18.90;;;;;;2244796;61;20850;-60
2022/04/01 06:32:05;0.00;0.00;0.62;0.00;0.00;0.62;2.67;1.30;;;20.50;18.90;;;;;;2245108;61;20892;-57
2022/04/01 06:35:02;0.00;0.00;0.62;0.00;0.00;0.62;2.00;1.53;;;20.50;18.90;;;;;;2244539;61;20387;-61
2022/04/01 06:38:20;0.00;0.00;0.62;0.00;0.00;0.62;2.50;1.50;;;20.50;19.00;;;;;;2233055;62;21029;-61
2022/04/01 06:41:09;0.00;0.00;0.62;0.00;0.00;0.62;1.93;1.50;;;20.50;19.00;;;;;;2246225;61;20372;-60
2022/04/01 06:44:14;0.00;0.00;0.62;0.00;0.00;0.62;2.83;2.03;;;20.50;19.00;;;;;;2248334;61;20379;-61
2022/04/01 06:47:05;0.00;0.00;0.62;0.00;0.00;0.62;2.23;1.70;;;20.50;19.00;;;;;;2247566;61;20935;-59
2022/04/01 06:49:50;0.00;0.00;0.62;0.00;0.00;0.62;1.83;1.33;;;20.50;19.00;;;;;;2245026;61;20391;-59
2022/04/01 06:52:54;0.00;0.00;0.62;0.00;0.00;0.62;3.43;1.60;;;20.50;19.00;;;;;;2248745;61;20459;-58
2022/04/01 06:56:16;0.00;0.00;0.62;0.00;0.00;0.62;2.40;1.80;;;20.50;19.10;;;;;;2247110;61;20376;-60
2022/04/01 06:59:01;0.00;0.00;0.62;0.00;0.00;0.62;2.10;1.70;;;20.50;19.10;;;;;;2248045;61;20465;-60
2022/04/01 07:01:46;0.00;0.00;0.62;0.00;0.00;0.62;3.43;1.83;;;20.50;19.10;;;;;;2247763;61;20759;-59
2022/04/01 07:04:31;0.00;0.00;0.62;0.00;0.00;0.62;3.10;1.80;;;20.50;19.10;;;;;;2248515;61;20406;-58
2022/04/01 07:07:15;0.00;0.00;0.62;0.00;0.00;0.62;2.50;1.70;;;20.50;19.10;;;;;;2247855;61;20375;-61
2022/04/01 07:10:00;0.00;0.00;0.62;0.00;0.00;0.62;2.10;1.50;;;20.50;19.00;;;;;;2246995;61;20435;-61
2022/04/01 07:12:46;0.00;0.00;0.62;0.00;0.00;0.62;2.10;1.60;;;20.50;19.00;;;;;;2248496;61;20411;-59
2022/04/01 07:15:30;0.00;0.00;0.62;0.00;0.00;0.62;2.17;1.60;;;20.40;19.00;;;;;;2248117;61;20430;-60
2022/04/01 07:18:15;0.00;0.00;0.62;0.00;0.00;0.62;3.13;1.90;;;20.50;19.00;;;;;;2247270;61;20415;-61
2022/04/01 07:21:00;0.00;0.00;0.62;0.00;0.00;0.62;2.90;1.67;;;20.50;19.00;;;;;;2248180;61;20366;-56
2022/04/01 07:23:45;0.00;0.00;0.62;0.00;0.00;0.62;2.40;1.63;;;20.40;18.90;;;;;;2248110;61;20806;-56
2022/04/01 07:26:29;0.00;0.00;0.62;0.00;0.00;0.62;2.43;1.50;;;20.40;18.90;;;;;;2248392;61;20363;-57
2022/04/01 07:29:16;0.00;0.00;0.62;0.00;0.00;0.62;2.53;1.70;;;20.40;19.00;;;;;;2248006;61;20442;-59
2022/04/01 07:35:08;0.00;0.00;0.62;0.00;0.00;0.62;3.17;1.60;;;20.50;19.10;;;;;;2247185;61;20387;-63
2022/04/01 07:37:55;0.00;0.00;0.62;0.00;0.00;0.62;2.43;1.60;;;20.50;19.10;;;;;;2248422;61;20899;-59
2022/04/01 07:40:40;0.00;0.00;0.62;0.00;0.00;0.62;2.80;2.10;;;20.50;19.10;;;;;;2244760;61;20407;-58
2022/04/01 07:43:25;0.00;0.00;0.62;0.00;0.00;0.62;2.47;1.53;;;20.50;19.60;;;;;;2247268;61;20526;-59
2022/04/01 07:46:11;0.00;0.00;0.62;0.00;0.00;0.62;2.60;1.60;;;20.50;19.10;;;;;;2247755;61;20363;-55
2022/04/01 07:48:55;0.00;0.00;0.62;0.00;0.00;0.62;2.50;1.80;;;20.50;19.10;;;;;;2244915;61;20446;-62
2022/04/01 07:51:40;0.00;0.00;0.62;0.00;0.00;0.62;2.50;1.70;;;20.50;19.10;;;;;;2248083;61;20895;-60
2022/04/01 07:54:25;0.00;0.00;0.62;0.00;0.00;0.62;2.03;1.07;;;20.50;19.10;;;;;;2247268;61;20359;-58
2022/04/01 07:57:13;0.00;0.00;0.62;0.00;0.00;0.62;2.40;1.70;;;20.60;19.20;;;;;;2245435;61;20363;-60
2022/04/01 07:59:57;0.00;0.00;0.62;0.00;0.00;0.62;2.40;1.63;;;20.60;19.20;;;;;;2248157;61;20431;-56
2022/04/01 08:02:44;0.00;0.00;0.62;0.00;0.00;0.62;1.87;1.30;;;20.60;19.20;;;;;;2246945;61;20359;-60
2022/04/01 08:05:29;0.00;0.00;0.62;0.00;0.00;0.62;2.10;1.50;;;20.60;19.20;;;;;;2248225;61;20363;-58
2022/04/01 08:08:15;0.00;0.00;0.62;0.00;0.00;0.62;2.50;1.60;;;20.60;19.20;;;;;;2247371;61;20866;-60
2022/04/01 08:10:59;0.00;0.00;0.62;0.00;0.00;0.62;2.63;1.30;;;20.60;19.20;;;;;;2247621;61;20363;-58
2022/04/01 08:13:44;0.00;0.00;0.62;0.00;0.00;0.62;1.73;1.13;;;20.60;19.20;;;;;;2248509;61;20371;-59
2022/04/01 08:16:29;0.00;0.00;0.62;0.00;0.00;0.62;1.90;1.10;;;20.70;19.30;;;;;;2247417;61;20367;-59
2022/04/01 08:19:16;0.00;0.00;0.62;0.00;0.00;0.62;1.80;1.30;;;20.70;19.30;;;;;;2248047;61;20487;-61
2022/04/01 08:22:00;0.00;0.00;0.62;0.00;0.00;0.62;2.20;1.10;;;20.70;19.30;;;;;;2248333;61;20414;-57
2022/04/01 08:24:46;0.00;0.00;0.62;0.00;0.00;0.62;1.87;1.20;;;20.70;19.30;;;;;;2246865;61;20368;-60
2022/04/01 08:27:30;0.00;0.00;0.62;0.00;0.00;0.62;1.80;1.30;;;20.70;19.80;;;;;;2248757;61;20775;-58
2022/04/01 08:30:15;0.00;0.00;0.62;0.00;0.00;0.62;2.13;1.20;;;20.80;19.30;;;;;;2248432;61;20479;-60
2022/04/01 08:32:59;0.00;0.00;0.62;0.00;0.00;0.62;1.70;1.30;;;20.80;19.40;;;;;;2248455;61;20363;-59
2022/04/01 08:35:45;0.00;0.00;0.62;0.00;0.00;0.62;2.00;1.40;;;20.80;19.30;;;;;;2246221;61;20359;-59
2022/04/01 08:38:30;0.00;0.00;0.62;0.00;0.00;0.62;1.80;1.20;;;20.80;19.30;;;;;;2247574;61;20883;-57
2022/04/01 08:41:17;0.00;0.00;0.62;0.00;0.00;0.62;2.30;1.30;;;20.80;19.30;;;;;;2248629;61;20363;-59
2022/04/01 08:44:03;0.00;0.00;0.62;0.00;0.00;0.62;1.40;1.00;;;20.90;19.40;;;;;;2250025;61;20367;-58
2022/04/01 08:46:48;0.00;0.00;0.62;0.00;0.00;0.62;1.70;1.10;;;20.90;19.40;;;;;;2249630;61;20399;-56
2022/04/01 08:49:33;0.00;0.00;0.62;0.00;0.00;0.62;2.30;1.23;;;20.90;19.40;;;;;;2249408;61;20479;-55
2022/04/01 08:52:19;0.00;0.00;0.62;0.00;0.00;0.62;1.80;1.30;;;21.00;19.50;;;;;;2249578;61;20367;-58
2022/04/01 08:55:07;0.00;0.00;0.62;0.00;0.00;0.62;1.90;1.40;;;21.00;19.40;;;;;;2248223;61;20395;-60
2022/04/01 08:57:52;0.00;0.00;0.62;0.00;0.00;0.62;1.93;1.10;;;21.00;20.00;;;;;;2250223;61;20771;-59
2022/04/01 09:00:36;0.00;0.00;0.62;0.00;0.00;0.62;1.90;1.30;;;21.00;19.50;;;;;;2249663;61;20787;-62
2022/04/01 09:03:22;0.00;0.00;0.62;0.00;0.00;0.62;2.30;1.30;;;21.00;19.50;;;;;;2250440;61;20434;-59
2022/04/01 09:06:08;0.00;0.00;0.62;0.00;0.00;0.62;1.80;1.40;;;21.10;19.50;;;;;;2250234;61;20435;-57
2022/04/01 09:08:59;0.00;0.00;0.62;0.00;0.00;0.62;1.97;1.20;;;21.10;19.50;;;;;;2248747;61;20403;-61
2022/04/01 09:12:03;0.00;0.00;0.62;0.00;0.00;0.62;1.80;1.20;;;21.10;19.50;;;;;;2249125;61;20423;-61
2022/04/01 09:14:51;0.00;0.00;0.62;0.00;0.00;0.62;1.90;1.00;;;21.20;19.60;;;;;;2249654;61;20455;-60
2022/04/01 09:17:41;0.00;0.00;0.62;0.00;0.00;0.62;1.57;1.17;;;21.20;19.60;;;;;;2249617;61;20914;-59
2022/04/01 09:20:26;0.00;0.00;0.62;0.00;0.00;0.62;2.07;1.23;;;21.20;19.60;;;;;;2248816;61;20380;-60
2022/04/01 09:23:10;0.00;0.00;0.62;0.00;0.00;0.62;1.50;1.00;;;21.20;19.50;;;;;;2248786;61;20356;-61
2022/04/01 09:25:56;0.00;0.00;0.62;0.00;0.00;0.62;1.83;1.20;;;21.30;19.50;;;;;;2249562;61;20447;-58
2022/04/01 09:28:42;0.00;0.00;0.62;0.00;0.00;0.62;1.80;1.13;;;21.30;19.40;;;;;;2248612;61;20379;-58
2022/04/01 09:31:32;0.00;0.00;0.62;0.00;0.00;0.62;1.60;1.20;;;21.30;19.30;;;;;;2247876;61;20407;-56
2022/04/01 09:34:17;0.00;0.00;0.62;0.00;0.00;0.62;2.00;1.20;;;21.40;20.00;;;;;;2248252;61;20430;-57
2022/04/01 09:37:02;0.00;0.00;0.62;0.00;0.00;0.62;2.00;1.70;;;21.40;19.40;;;;;;2249706;61;20364;-61
2022/04/01 09:39:51;0.00;0.00;0.62;0.00;0.00;0.62;1.93;1.23;;;21.40;19.40;;;;;;2250702;61;20442;-58
2022/04/01 09:42:38;0.00;0.00;0.62;0.00;0.00;0.62;2.30;1.20;;;21.40;19.40;;;;;;2251437;61;20677;-63
2022/04/01 09:45:26;0.00;0.00;0.62;0.00;0.00;0.62;1.70;1.17;;;21.40;19.40;;;;;;2249569;61;20375;-59
2022/04/01 09:48:13;0.00;0.00;0.62;0.00;0.00;0.62;1.77;1.20;;;21.40;19.40;;;;;;2250461;61;20407;-60
2022/04/01 09:50:59;0.00;0.00;0.62;0.00;0.00;0.62;1.83;1.27;;;21.50;19.50;;;;;;2250403;61;20899;-58
2022/04/01 09:53:52;0.00;0.00;0.62;0.00;0.00;0.62;1.90;1.30;;;21.50;19.50;;;;;;2249952;61;20411;-58
2022/04/01 09:56:43;0.00;0.00;0.62;0.00;0.00;0.62;1.90;1.20;;;21.50;19.50;;;;;;2250834;61;20360;-62
2022/04/01 09:59:31;0.00;0.00;0.62;0.00;0.00;0.62;1.80;1.20;;;21.50;19.40;;;;;;2248451;61;20864;-64
2022/04/01 10:02:16;0.00;0.00;0.62;0.00;0.00;0.62;1.50;0.93;;;21.60;19.40;;;;;;2247647;61;20777;-61
2022/04/01 10:05:02;0.00;0.00;0.62;0.00;0.00;0.62;1.93;1.00;;;21.60;19.40;;;;;;2244810;61;20372;-60
2022/04/01 10:07:47;0.00;0.00;0.62;0.00;0.00;0.62;1.47;0.97;;;21.60;19.40;;;;;;2243371;61;20369;-63
2022/04/01 10:10:32;0.00;0.00;0.62;0.00;0.00;0.62;1.60;1.00;;;21.70;19.50;;;;;;2244724;61;20427;-55
2022/04/01 10:13:24;0.00;0.00;0.62;0.00;0.00;0.62;1.93;1.03;;;21.70;19.40;;;;;;2246237;61;20355;-59
2022/04/01 10:16:10;0.00;0.00;0.62;0.00;0.00;0.62;2.43;1.20;;;21.70;19.50;;;;;;2245887;61;20419;-63
2022/04/01 10:19:02;0.00;0.00;0.62;0.00;0.00;0.62;1.87;1.17;;;21.70;19.50;;;;;;2247042;58;20388;-58
2022/04/01 10:21:46;0.00;0.00;0.62;0.00;0.00;0.62;1.40;1.00;;;21.70;19.40;;;;;;2244128;61;20810;-63
2022/04/01 10:24:40;0.00;0.00;0.62;0.00;0.00;0.62;1.80;0.93;;;21.80;19.50;;;;;;2248449;61;20785;-60
2022/04/01 10:27:34;0.00;0.00;0.62;0.00;0.00;0.62;1.57;1.10;;;21.80;19.50;;;;;;2248721;61;20367;-61
2022/04/01 10:30:20;0.00;0.00;0.62;0.00;0.00;0.62;2.53;1.20;;;21.80;19.50;;;;;;2246700;61;20396;-62
2022/04/01 10:33:12;0.00;0.00;0.62;0.00;0.00;0.62;2.30;1.30;;;21.80;19.50;;;;;;2248703;61;20884;-60
2022/04/01 10:35:57;0.00;0.00;0.62;0.00;0.00;0.62;1.50;1.00;;;21.90;19.40;;;;;;2248400;61;20375;-59
2022/04/01 10:38:42;0.00;0.00;0.62;0.00;0.00;0.62;1.83;1.10;;;21.90;19.30;;;;;;2248152;61;20359;-62
2022/04/01 10:41:27;0.00;0.00;0.62;0.00;0.00;0.62;1.70;1.27;;;21.90;19.30;;;;;;2248704;61;20446;-60
2022/04/01 10:44:12;0.00;0.00;0.62;0.00;0.00;0.62;1.50;1.07;;;21.90;19.20;;;;;;2247204;61;20364;-60
2022/04/01 10:46:58;0.00;0.00;0.62;0.00;0.00;0.62;1.60;1.10;;;21.90;19.10;;;;;;2248632;61;20959;-61
2022/04/01 10:52:52;0.00;0.00;0.62;0.00;0.00;0.62;3.30;1.20;;;22.00;19.00;;;;;;2247290;61;20360;-61
2022/04/01 10:55:36;0.00;0.00;0.62;0.00;0.00;0.62;1.73;1.20;;;21.90;18.80;;;;;;2248572;61;20359;-60
2022/04/01 10:58:21;0.00;0.00;0.62;0.00;0.00;0.62;2.00;1.20;;;21.90;18.80;;;;;;2248017;61;20359;-59
2022/04/01 11:01:23;0.00;0.00;0.62;0.00;0.00;0.62;1.90;1.40;;;21.90;18.80;;;;;;2247933;61;20360;-60
2022/04/01 11:04:29;0.00;0.00;0.62;0.00;0.00;0.62;2.47;1.10;;;21.90;18.80;;;;;;2248266;61;20363;-59
2022/04/01 11:07:33;0.00;0.00;0.62;0.00;0.00;0.62;1.60;1.00;;;21.90;18.80;;;;;;2247336;61;20399;-61
2022/04/01 11:10:25;0.00;0.00;0.62;0.00;0.00;0.62;2.00;0.93;;;22.00;18.80;;;;;;2247694;61;20439;-59
2022/04/01 11:13:27;0.00;0.00;0.62;0.00;0.00;0.62;2.67;1.10;;;21.90;18.80;;;;;;2247978;61;20706;-60
2022/04/01 11:16:20;0.00;0.00;0.62;0.00;0.00;0.62;1.67;1.17;;;21.90;18.80;;;;;;2248442;61;20899;-60
2022/04/01 11:19:22;0.00;0.00;0.62;0.00;0.00;0.62;1.60;1.00;;;21.90;18.80;;;;;;2248070;61;20411;-59